Time;durP1;ratioP1;P1;durP2;ratioP2;P2;SDS_P1;SDS_P2;PMS_P1;PMS_P2;Temp;Humidity;BMP_temperature;BMP_pressure;BME280_temperature;BME280_humidity;BME280_pressure;Samples;Min_cycle;Max_cycle;Signal;HPM_P1;HPM_P2
2023/04/29 00:00:09;;;;;;;28.65;14.82;;;;;;;7.25;100.00;101700.81;5036431;28;20092;-71
2023/04/29 00:02:34;;;;;;;25.05;13.82;;;;;;;7.22;100.00;101704.50;5036561;28;20029;-71
2023/04/29 00:05:00;;;;;;;25.83;15.05;;;;;;;7.22;100.00;101708.94;5036075;28;20442;-71
2023/04/29 00:07:25;;;;;;;29.80;14.70;;;;;;;7.21;100.00;101709.88;5036612;28;20037;-71
2023/04/29 00:09:50;;;;;;;29.80;16.17;;;;;;;7.20;100.00;101714.34;5035392;28;20459;-71
2023/04/29 00:12:16;;;;;;;26.35;15.25;;;;;;;7.20;100.00;101718.78;5036170;28;20041;-71
2023/04/29 00:14:42;;;;;;;27.90;14.95;;;;;;;7.20;100.00;101716.13;5034568;28;20036;-70
2023/04/29 00:17:08;;;;;;;26.95;15.05;;;;;;;7.19;100.00;101711.78;5036091;28;20037;-70
2023/04/29 00:19:33;;;;;;;33.42;16.10;;;;;;;7.18;100.00;101720.66;5035758;28;20061;-71
2023/04/29 00:22:00;;;;;;;24.13;15.70;;;;;;;7.18;100.00;101725.94;5036071;28;20036;-71
2023/04/29 00:24:25;;;;;;;30.15;16.85;;;;;;;7.16;100.00;101727.84;5035862;28;20029;-70
2023/04/29 00:26:51;;;;;;;32.70;16.65;;;;;;;7.16;100.00;101730.50;5036318;28;20033;-70
2023/04/29 00:29:17;;;;;;;27.35;16.15;;;;;;;7.12;100.00;101724.56;5035636;28;20042;-70
2023/04/29 00:31:42;;;;;;;22.52;15.02;;;;;;;7.13;100.00;101730.69;5036014;28;20396;-71
2023/04/29 00:34:08;;;;;;;33.78;16.50;;;;;;;7.10;100.00;101729.09;5036103;28;20042;-72
2023/04/29 00:36:34;;;;;;;28.65;15.45;;;;;;;7.10;100.00;101737.03;5035832;28;20430;-70
2023/04/29 00:38:59;;;;;;;29.02;15.30;;;;;;;7.09;100.00;101747.69;5036299;28;20033;-71
2023/04/29 00:41:24;;;;;;;37.70;16.20;;;;;;;7.06;100.00;101732.84;5034488;28;20036;-71
2023/04/29 00:43:51;;;;;;;24.70;15.00;;;;;;;7.05;100.00;101742.59;5035692;28;20124;-71
2023/04/29 00:46:17;;;;;;;25.23;15.13;;;;;;;7.05;100.00;101739.94;5035457;28;20034;-70
2023/04/29 00:48:42;;;;;;;29.70;15.90;;;;;;;7.03;100.00;101744.50;5035451;28;20098;-71
2023/04/29 00:51:08;;;;;;;26.40;14.25;;;;;;;7.02;100.00;101740.16;5035300;28;20086;-71
2023/04/29 00:53:35;;;;;;;23.25;15.52;;;;;;;7.01;100.00;101742.88;5036061;28;20026;-71
2023/04/29 00:56:01;;;;;;;28.85;15.10;;;;;;;7.01;100.00;101749.00;5036374;28;20466;-70
2023/04/29 00:58:32;;;;;;;32.30;15.43;;;;;;;6.99;100.00;101745.63;5035540;28;20151;-71
2023/04/29 01:00:59;;;;;;;27.13;15.85;;;;;;;6.98;100.00;101751.00;5034451;28;20061;-71
2023/04/29 01:03:27;;;;;;;34.60;15.50;;;;;;;6.97;100.00;101750.16;5033727;28;20030;-75
2023/04/29 01:06:14;;;;;;;25.52;15.50;;;;;;;6.98;100.00;101751.84;5034951;28;20045;-71
2023/04/29 01:08:59;;;;;;;29.95;15.95;;;;;;;6.97;100.00;101744.00;5035144;28;20056;-70
2023/04/29 01:11:33;;;;;;;24.13;14.93;;;;;;;6.97;100.00;101750.16;5035401;28;20030;-70
2023/04/29 01:14:02;;;;;;;26.67;15.60;;;;;;;6.97;100.00;101751.94;5035264;28;20036;-70
2023/04/29 01:16:43;;;;;;;28.98;16.00;;;;;;;6.97;100.00;101754.59;5034813;28;20490;-71
2023/04/29 01:19:15;;;;;;;;;;;;;;;6.99;100.00;101755.38;5035226;28;20155;-70
2023/04/29 01:21:50;;;;;;;;;;;;;;;7.01;100.00;101750.81;5035763;28;19913;-71
2023/04/29 01:24:16;;;;;;;22.88;13.98;;;;;;;7.00;100.00;101752.63;5034901;28;19913;-71
2023/04/29 01:26:56;;;;;;;25.77;15.10;;;;;;;7.01;100.00;101761.41;5034631;28;20025;-71
2023/04/29 01:29:33;;;;;;;24.55;14.98;;;;;;;6.99;100.00;101758.84;5035201;28;20108;-71
2023/04/29 01:32:11;;;;;;;26.27;14.48;;;;;;;6.99;100.00;101764.16;5034684;28;20032;-71
2023/04/29 01:34:58;;;;;;;32.75;15.82;;;;;;;7.02;100.00;101768.41;5035027;28;20029;-71
2023/04/29 01:37:40;;;;;;;33.05;15.82;;;;;;;7.03;100.00;101760.38;5033946;28;20029;-71
2023/04/29 01:40:16;;;;;;;25.88;14.90;;;;;;;7.04;100.00;101759.41;5034658;28;20029;-71
2023/04/29 01:42:55;;;;;;;21.40;13.63;;;;;;;7.04;100.00;101750.63;5034473;28;20033;-71
2023/04/29 01:45:22;;;;;;;26.00;14.68;;;;;;;7.06;100.00;101751.38;5034245;28;20021;-72
2023/04/29 01:47:51;;;;;;;29.25;14.73;;;;;;;7.08;100.00;101757.44;5034164;28;20060;-71
2023/04/29 01:50:16;;;;;;;21.38;13.77;;;;;;;7.09;100.00;101760.94;5034234;28;20037;-70
2023/04/29 01:52:42;;;;;;;24.63;14.10;;;;;;;7.13;100.00;101762.47;5032818;28;20497;-71
2023/04/29 01:55:08;;;;;;;23.98;14.02;;;;;;;7.12;100.00;101756.31;5034107;28;20048;-71
2023/04/29 01:57:33;;;;;;;24.80;14.45;;;;;;;7.15;100.00;101755.25;5034243;28;20033;-71
2023/04/29 01:59:58;;;;;;;22.90;13.75;;;;;;;7.18;100.00;101765.66;5034007;28;20452;-71
2023/04/29 02:02:24;;;;;;;25.13;14.23;;;;;;;7.18;100.00;101761.22;5033770;28;20116;-70
2023/04/29 02:04:50;;;;;;;23.33;13.45;;;;;;;7.21;100.00;101773.41;5032469;28;20132;-71
2023/04/29 02:07:16;;;;;;;25.08;13.38;;;;;;;7.21;100.00;101770.75;5034258;28;20029;-71
2023/04/29 02:09:41;;;;;;;21.85;13.70;;;;;;;7.21;100.00;101771.63;5032543;28;20048;-71
2023/04/29 02:12:06;;;;;;;19.40;13.10;;;;;;;7.21;100.00;101766.34;5033483;28;20045;-71
2023/04/29 02:14:33;;;;;;;18.92;12.02;;;;;;;7.22;100.00;101778.59;5033669;28;20029;-72
2023/04/29 02:16:58;;;;;;;20.15;12.20;;;;;;;7.22;100.00;101778.59;5033591;28;20104;-71
2023/04/29 02:19:24;;;;;;;20.10;12.38;;;;;;;7.22;100.00;101791.84;5033675;28;20087;-71
2023/04/29 02:21:50;;;;;;;18.85;12.07;;;;;;;7.21;100.00;101782.22;5033625;28;20049;-71
2023/04/29 02:24:15;;;;;;;20.45;11.93;;;;;;;7.23;100.00;101792.72;5033704;28;20364;-71
2023/04/29 02:26:40;;;;;;;18.77;12.52;;;;;;;7.23;100.00;101792.72;5033668;28;20111;-71
2023/04/29 02:29:06;;;;;;;18.40;11.57;;;;;;;7.23;100.00;101796.19;5033607;28;20041;-72
2023/04/29 02:31:31;;;;;;;19.83;12.55;;;;;;;7.24;100.00;101799.72;5032578;28;20037;-71
2023/04/29 02:33:56;;;;;;;22.88;13.38;;;;;;;7.24;100.00;101805.00;5033177;28;20044;-72
2023/04/29 02:36:23;;;;;;;25.25;12.43;;;;;;;7.24;100.00;101797.91;5033523;28;20087;-71
2023/04/29 02:38:49;;;;;;;21.88;11.77;;;;;;;7.24;100.00;101811.16;5033257;28;20116;-72
2023/04/29 02:41:18;;;;;;;19.70;11.63;;;;;;;7.24;100.00;101803.22;5033382;28;20037;-71
2023/04/29 02:43:44;;;;;;;19.45;12.13;;;;;;;7.27;100.00;101811.91;5033013;28;20021;-71
2023/04/29 02:46:09;;;;;;;16.58;11.18;;;;;;;7.28;100.00;101810.97;5033321;28;20033;-71
2023/04/29 02:48:35;;;;;;;22.30;12.40;;;;;;;7.29;100.00;101812.66;5033555;28;20033;-71
2023/04/29 02:51:01;;;;;;;21.98;12.57;;;;;;;7.28;100.00;101825.03;5032231;28;20033;-71
2023/04/29 02:53:26;;;;;;;20.80;11.77;;;;;;;7.28;100.00;101824.19;5032819;28;20037;-71
2023/04/29 02:55:52;;;;;;;26.42;12.65;;;;;;;7.28;100.00;101822.38;5033237;28;20029;-71
2023/04/29 02:58:17;;;;;;;22.80;12.75;;;;;;;7.29;100.00;101828.56;5033159;28;20487;-71
2023/04/29 03:00:42;;;;;;;24.13;12.00;;;;;;;7.29;100.00;101831.19;5033308;28;20029;-71
2023/04/29 03:03:08;;;;;;;19.92;11.48;;;;;;;7.29;100.00;101834.69;5032213;28;20041;-71
2023/04/29 03:05:34;;;;;;;18.85;11.63;;;;;;;7.30;100.00;101838.19;5033025;28;20065;-71
2023/04/29 03:08:00;;;;;;;21.95;12.98;;;;;;;7.30;100.00;101835.53;5032556;28;20468;-71
2023/04/29 03:10:25;;;;;;;20.38;11.38;;;;;;;7.31;100.00;101835.44;5032888;28;20072;-71
2023/04/29 03:12:51;;;;;;;21.67;12.38;;;;;;;7.32;100.00;101837.16;5032543;28;20121;-71
2023/04/29 03:15:16;;;;;;;22.35;12.80;;;;;;;7.32;100.00;101836.31;5031735;28;20080;-71
2023/04/29 03:17:44;;;;;;;26.85;12.50;;;;;;;7.32;100.00;101841.59;5033215;28;20029;-73
2023/04/29 03:20:10;;;;;;;24.05;12.10;;;;;;;7.33;100.00;101838.00;5032694;28;20033;-72
2023/04/29 03:22:35;;;;;;;22.30;11.93;;;;;;;7.33;100.00;101838.00;5032055;28;20049;-72
2023/04/29 03:25:01;;;;;;;20.08;11.98;;;;;;;7.32;100.00;101834.50;5035408;28;20440;-72
2023/04/29 03:27:27;;;;;;;22.42;12.60;;;;;;;7.33;100.00;101841.50;5036933;28;20034;-72
2023/04/29 03:29:52;;;;;;;25.38;12.50;;;;;;;7.36;100.00;101837.81;5036352;28;20048;-71
2023/04/29 03:32:17;;;;;;;28.75;12.38;;;;;;;7.37;100.00;101847.47;5036540;28;20090;-71
2023/04/29 03:34:43;;;;;;;21.20;11.68;;;;;;;7.38;100.00;101850.00;5036884;28;20112;-76
2023/04/29 03:37:08;;;;;;;22.75;11.45;;;;;;;7.40;100.00;101844.63;5036672;28;20034;-71
2023/04/29 03:39:34;;;;;;;18.30;11.10;;;;;;;7.40;100.00;101844.63;5036591;28;20091;-71
2023/04/29 03:42:00;;;;;;;20.42;11.38;;;;;;;7.40;100.00;101847.28;5036295;28;20029;-71
2023/04/29 03:44:25;;;;;;;22.95;11.82;;;;;;;7.40;100.00;101856.09;5037064;28;20034;-71
2023/04/29 03:46:51;;;;;;;18.52;11.00;;;;;;;7.41;100.00;101848.97;5036674;28;20125;-71
2023/04/29 03:49:17;;;;;;;22.48;11.63;;;;;;;7.43;100.00;101856.81;5036537;28;20036;-71
2023/04/29 03:51:44;;;;;;;21.73;12.15;;;;;;;7.43;100.00;101862.97;5036489;28;20087;-71
2023/04/29 03:54:10;;;;;;;19.17;11.18;;;;;;;7.44;100.00;101862.03;5036988;28;20057;-71
2023/04/29 03:56:36;;;;;;;20.23;11.65;;;;;;;7.43;100.00;101862.97;5035422;28;20091;-71
2023/04/29 03:59:01;;;;;;;25.08;11.38;;;;;;;7.41;100.00;101862.22;5035915;28;20434;-71
2023/04/29 04:01:26;;;;;;;18.10;11.90;;;;;;;7.42;100.00;101866.56;5034647;28;20033;-71
2023/04/29 04:03:52;;;;;;;25.23;12.18;;;;;;;7.44;100.00;101867.31;5034913;28;20036;-72
2023/04/29 04:06:17;;;;;;;23.63;10.98;;;;;;;7.45;100.00;101871.69;5037087;28;20054;-72
2023/04/29 04:08:43;;;;;;;21.30;11.45;;;;;;;7.46;100.00;101870.72;5019103;28;20058;-71
2023/04/29 04:11:08;;;;;;;20.05;11.48;;;;;;;7.48;100.00;101878.56;5036017;28;20037;-72
2023/04/29 04:13:35;;;;;;;25.08;12.30;;;;;;;7.47;100.00;101874.25;5036056;28;20468;-71
2023/04/29 04:16:00;;;;;;;19.58;11.18;;;;;;;7.48;100.00;101867.97;5036094;28;20375;-72
2023/04/29 04:18:26;;;;;;;22.73;12.02;;;;;;;7.48;100.00;101870.63;5036000;28;20087;-72
2023/04/29 04:20:51;;;;;;;26.00;12.23;;;;;;;7.51;100.00;101879.25;5035684;28;20505;-72
2023/04/29 04:23:16;;;;;;;27.45;12.38;;;;;;;7.50;100.00;101880.19;5036238;28;20096;-71
2023/04/29 04:25:46;;;;;;;21.90;11.02;;;;;;;7.50;100.00;101882.84;5035666;28;20033;-72
2023/04/29 04:28:11;;;;;;;24.92;12.00;;;;;;;7.51;100.00;101881.03;5035912;28;20532;-71
2023/04/29 04:30:37;;;;;;;27.05;13.02;;;;;;;7.51;100.00;101889.84;5035501;28;20112;-71
2023/04/29 04:33:02;;;;;;;32.40;12.48;;;;;;;7.51;100.00;101887.19;5035395;28;20082;-71
2023/04/29 04:35:28;;;;;;;29.85;12.18;;;;;;;7.51;100.00;101886.31;5034535;28;20041;-71
2023/04/29 04:37:53;;;;;;;27.23;12.48;;;;;;;7.52;100.00;101896.81;5035748;28;20383;-72
2023/04/29 04:40:19;;;;;;;27.85;13.52;;;;;;;7.53;100.00;101903.00;5035632;28;20037;-72
2023/04/29 04:42:45;;;;;;;31.10;12.88;;;;;;;7.54;100.00;101913.50;5035861;28;20029;-71
2023/04/29 04:45:11;;;;;;;26.88;12.90;;;;;;;7.54;100.00;101910.84;5035224;28;20056;-72
2023/04/29 04:47:36;;;;;;;25.83;13.15;;;;;;;7.56;100.00;101910.75;5035391;28;20034;-71
2023/04/29 04:50:03;;;;;;;31.05;13.60;;;;;;;7.57;100.00;101921.25;5034708;28;20038;-71
2023/04/29 04:52:28;;;;;;;23.67;13.43;;;;;;;7.60;100.00;101922.88;5035326;28;20483;-72
2023/04/29 04:54:54;;;;;;;30.52;13.40;;;;;;;7.61;100.00;101926.38;5035835;28;20025;-72
2023/04/29 04:57:19;;;;;;;28.52;13.35;;;;;;;7.63;100.00;101935.06;5034008;28;20036;-71
2023/04/29 04:59:45;;;;;;;30.08;12.88;;;;;;;7.66;100.00;101940.16;5035115;28;20170;-71
2023/04/29 05:02:10;;;;;;;27.10;13.73;;;;;;;7.67;100.00;101937.41;5035895;28;20052;-71
2023/04/29 05:04:36;;;;;;;32.33;13.93;;;;;;;7.69;100.00;101940.00;5033636;28;20038;-72
2023/04/29 05:07:01;;;;;;;39.13;15.00;;;;;;;7.70;100.00;101941.69;5036114;28;20487;-72
2023/04/29 05:09:27;;;;;;;31.70;15.00;;;;;;;7.73;100.00;101946.78;5033821;28;20045;-72
2023/04/29 05:11:53;;;;;;;31.33;12.95;;;;;;;7.75;100.00;101956.38;5034949;28;20037;-71
2023/04/29 05:14:18;;;;;;;36.05;14.68;;;;;;;7.74;100.00;101959.94;5034928;28;20433;-71
2023/04/29 05:16:45;;;;;;;33.97;14.50;;;;;;;7.76;100.00;101951.91;5035191;28;20041;-72
2023/04/29 05:19:11;;;;;;;30.55;14.55;;;;;;;7.81;100.00;101959.56;5034603;28;20036;-72
2023/04/29 05:21:36;;;;;;;29.25;13.68;;;;;;;7.83;100.00;101963.00;5034912;28;20030;-72
2023/04/29 05:24:02;;;;;;;23.85;13.40;;;;;;;7.86;100.00;101965.47;5034944;28;20060;-72
2023/04/29 05:26:27;;;;;;;23.63;14.05;;;;;;;7.90;100.00;101970.47;5034983;28;20045;-71
2023/04/29 05:28:54;;;;;;;28.92;13.68;;;;;;;7.93;100.00;101964.97;5034701;28;20042;-72
2023/04/29 05:31:19;;;;;;;29.15;14.45;;;;;;;7.96;100.00;101974.56;5034637;28;20041;-72
2023/04/29 05:33:45;;;;;;;26.67;12.85;;;;;;;8.02;100.00;101975.97;5034116;28;20037;-72
2023/04/29 05:36:10;;;;;;;27.75;14.30;;;;;;;8.05;100.00;101975.78;5034785;28;20048;-73
2023/04/29 05:38:35;;;;;;;30.50;14.85;;;;;;;8.06;100.00;101972.16;5034672;28;20029;-71
2023/04/29 05:41:02;;;;;;;35.67;15.40;;;;;;;8.10;100.00;101973.69;5034398;28;20108;-71
2023/04/29 05:43:28;;;;;;;29.92;15.48;;;;;;;8.12;100.00;101977.97;5034677;28;20057;-72
2023/04/29 05:45:53;;;;;;;38.35;16.50;;;;;;;8.17;100.00;101976.84;5032877;28;20029;-72
2023/04/29 05:48:19;;;;;;;38.25;16.02;;;;;;;8.20;100.00;101982.78;5033863;28;20517;-72
2023/04/29 05:50:46;;;;;;;37.42;17.13;;;;;;;8.26;100.00;101993.00;5034127;28;20029;-72
2023/04/29 05:53:11;;;;;;;32.13;15.57;;;;;;;8.31;100.00;101992.72;5034387;28;20147;-71
2023/04/29 05:55:38;;;;;;;33.00;15.70;;;;;;;8.32;100.00;102002.38;5034397;28;20037;-72
2023/04/29 05:58:03;;;;;;;29.45;16.45;;;;;;;8.34;100.00;102008.44;5033968;28;20036;-71
2023/04/29 06:00:30;;;;;;;51.60;17.83;;;;;;;8.35;100.00;102007.50;5034120;28;20026;-71
2023/04/29 06:02:56;;;;;;;30.58;16.23;;;;;;;8.38;100.00;102017.06;5033959;28;20502;-71
2023/04/29 06:05:21;;;;;;;28.30;15.10;;;;;;;8.43;100.00;102022.91;5033756;28;20101;-71
2023/04/29 06:07:47;;;;;;;26.70;14.18;;;;;;;8.50;100.00;102018.13;5033684;28;20140;-72
2023/04/29 06:10:12;;;;;;;23.75;13.32;;;;;;;8.55;100.00;102023.97;5033876;28;20029;-72
2023/04/29 06:12:37;;;;;;;22.60;13.35;;;;;;;8.62;100.00;102026.13;5034460;28;20037;-71
2023/04/29 06:15:03;;;;;;;22.35;12.75;;;;;;;8.68;100.00;102032.88;5033396;28;20032;-73
2023/04/29 06:17:29;;;;;;;21.95;12.02;;;;;;;8.77;100.00;102028.78;5033725;28;20029;-71
2023/04/29 06:19:55;;;;;;;21.77;11.30;;;;;;;8.84;100.00;102030.09;5033773;28;20080;-71
2023/04/29 06:22:20;;;;;;;23.90;12.50;;;;;;;8.96;100.00;102039.06;5033804;28;20087;-72
2023/04/29 06:24:48;;;;;;;23.67;13.15;;;;;;;9.10;100.00;102046.13;5032713;28;20042;-72
2023/04/29 06:27:15;;;;;;;22.42;12.50;;;;;;;9.22;100.00;102044.47;5033432;28;20079;-71
2023/04/29 06:29:41;;;;;;;29.67;12.88;;;;;;;9.34;100.00;102041.00;5033996;28;20064;-70
2023/04/29 06:32:06;;;;;;;21.73;11.88;;;;;;;9.41;100.00;102052.09;5033018;28;20034;-71
2023/04/29 06:34:32;;;;;;;28.52;11.77;;;;;;;9.49;100.00;102050.63;5033464;28;20029;-71
2023/04/29 06:36:57;;;;;;;25.35;10.95;;;;;;;9.61;100.00;102054.25;5032948;28;20072;-71
2023/04/29 06:39:23;;;;;;;20.35;10.30;;;;;;;9.75;100.00;102052.47;5033266;28;20091;-71
2023/04/29 06:41:48;;;;;;;23.00;11.48;;;;;;;9.98;100.00;102058.88;5031954;28;20045;-71
2023/04/29 06:44:15;;;;;;;25.90;11.77;;;;;;;10.14;100.00;102064.84;5032972;28;20040;-71
2023/04/29 06:46:41;;;;;;;17.55;9.70;;;;;;;10.26;100.00;102070.28;5033379;28;20083;-71
2023/04/29 06:49:07;;;;;;;21.95;10.00;;;;;;;10.28;100.00;102074.50;5033499;28;20098;-74
2023/04/29 06:51:33;;;;;;;17.60;8.93;;;;;;;10.17;100.00;102074.44;5032086;28;20436;-69
2023/04/29 06:53:58;;;;;;;15.20;8.13;;;;;;;10.04;100.00;102071.75;5033560;28;20480;-68
2023/04/29 06:56:24;;;;;;;14.45;7.68;;;;;;;9.98;100.00;102075.69;5032835;28;20486;-70
2023/04/29 06:58:49;;;;;;;19.10;7.90;;;;;;;9.95;100.00;102083.88;5032028;28;20087;-70
2023/04/29 07:01:15;;;;;;;15.43;7.32;;;;;;;9.99;100.00;102092.50;5032686;28;20034;-70
2023/04/29 07:03:41;;;;;;;16.67;8.40;;;;;;;10.10;100.00;102097.06;5032963;28;20052;-70
2023/04/29 07:06:06;;;;;;;16.63;8.25;;;;;;;10.20;100.00;102091.00;5033093;28;20060;-69
2023/04/29 07:08:32;;;;;;;16.27;7.50;;;;;;;10.29;100.00;102102.00;5032248;28;20036;-70
2023/04/29 07:10:57;;;;;;;10.98;6.72;;;;;;;10.43;100.00;102099.22;5031687;28;20121;-71
2023/04/29 07:13:26;;;;;;;10.52;6.75;;;;;;;10.68;100.00;102100.19;5032708;28;20187;-70
2023/04/29 07:15:51;;;;;;;15.73;7.47;;;;;;;10.94;100.00;102104.50;5032780;28;20026;-70
2023/04/29 07:18:17;;;;;;;12.10;6.93;;;;;;;11.09;100.00;102107.84;5032532;28;20120;-71
2023/04/29 07:20:43;;;;;;;11.52;6.68;;;;;;;11.00;100.00;102113.84;5032494;28;20115;-70
2023/04/29 07:23:09;;;;;;;21.63;7.90;;;;;;;10.85;100.00;102121.13;5032839;28;20033;-68
2023/04/29 07:25:34;;;;;;;17.75;8.15;;;;;;;10.62;100.00;102119.25;5032241;28;20029;-70
2023/04/29 07:28:00;;;;;;;19.23;8.05;;;;;;;10.39;100.00;102124.38;5032308;28;20041;-71
2023/04/29 07:30:25;;;;;;;11.90;7.57;;;;;;;10.33;100.00;102124.72;5031903;28;20033;-70
2023/04/29 07:32:51;;;;;;;15.07;7.85;;;;;;;10.38;100.00;102120.84;5031473;28;20443;-71
2023/04/29 07:35:16;;;;;;;13.82;6.32;;;;;;;10.44;100.00;102130.22;5032363;28;20121;-71
2023/04/29 07:37:42;;;;;;;9.15;6.57;;;;;;;10.47;100.00;102127.34;5032705;28;20030;-71
2023/04/29 07:40:08;;;;;;;16.75;7.03;;;;;;;10.68;100.00;102137.44;5032610;28;20471;-70
2023/04/29 07:42:34;;;;;;;17.58;6.80;;;;;;;10.91;100.00;102136.66;5032329;28;20041;-70
2023/04/29 07:44:59;;;;;;;14.32;7.03;;;;;;;11.18;100.00;102127.66;5032228;28;20040;-69
2023/04/29 07:47:24;;;;;;;12.68;6.32;;;;;;;11.58;100.00;102131.84;5032851;28;20068;-70
2023/04/29 07:49:51;;;;;;;22.38;6.93;;;;;;;11.86;100.00;102133.28;5033145;28;20061;-69
2023/04/29 07:52:17;;;;;;;15.90;6.18;;;;;;;11.92;100.00;102126.66;5033180;28;20034;-70
2023/04/29 07:54:42;;;;;;;12.45;6.45;;;;;;;11.71;100.00;102143.28;5032286;28;20129;-71
2023/04/29 07:57:08;;;;;;;16.73;6.95;;;;;;;11.56;100.00;102133.78;5031186;28;20049;-70
2023/04/29 07:59:33;;;;;;;19.38;7.65;;;;;;;11.33;100.00;102147.00;5031186;28;20033;-72
2023/04/29 08:01:59;;;;;;;13.45;6.55;;;;;;;11.22;100.00;102142.41;5031223;28;20037;-72
2023/04/29 08:04:24;;;;;;;12.73;6.43;;;;;;;11.32;100.00;102147.94;5032644;28;20041;-71
2023/04/29 08:06:50;;;;;;;16.60;6.60;;;;;;;11.35;100.00;102145.06;5032679;28;20049;-69
2023/04/29 08:09:16;;;;;;;15.23;6.43;;;;;;;11.51;100.00;102139.47;5033407;28;20101;-69
2023/04/29 08:11:43;;;;;;;11.10;6.22;;;;;;;11.75;100.00;102150.09;5035919;28;20033;-71
2023/04/29 08:14:09;;;;;;;14.75;6.25;;;;;;;11.92;100.00;102140.81;5036541;28;20467;-70
2023/04/29 08:16:34;;;;;;;19.67;5.88;;;;;;;12.10;100.00;102143.09;5034513;28;20041;-73
2023/04/29 08:19:00;;;;;;;13.25;5.85;;;;;;;12.34;100.00;102143.03;5036225;28;20034;-72
2023/04/29 08:21:26;;;;;;;12.70;5.60;;;;;;;12.42;100.00;102142.41;5035805;28;20426;-72
2023/04/29 08:23:52;;;;;;;14.43;5.97;;;;;;;12.47;100.00;102138.44;5036461;28;20033;-71
2023/04/29 08:26:18;;;;;;;15.50;5.10;;;;;;;12.78;100.00;102137.81;5036458;28;20088;-70
2023/04/29 08:28:43;;;;;;;9.45;5.05;;;;;;;13.15;100.00;102145.56;5035643;28;20052;-75
2023/04/29 08:31:18;;;;;;;9.77;5.32;;;;;;;13.28;100.00;102148.94;5036019;28;20040;-72
2023/04/29 08:33:45;;;;;;;13.90;5.22;;;;;;;13.65;100.00;102151.31;5035643;28;20422;-72
2023/04/29 08:36:10;;;;;;;13.60;5.40;;;;;;;13.92;100.00;102156.16;5036529;28;20087;-76
2023/04/29 08:38:37;;;;;;;9.55;4.70;;;;;;;14.23;100.00;102160.78;5034374;28;20034;-72
2023/04/29 08:41:02;;;;;;;11.27;5.55;;;;;;;14.45;100.00;102157.94;5035862;28;20037;-70
2023/04/29 08:43:28;;;;;;;11.43;5.30;;;;;;;14.41;100.00;102156.50;5035718;28;20471;-71
2023/04/29 08:45:56;;;;;;;10.30;5.38;;;;;;;14.27;100.00;102165.72;5035545;28;20061;-70
2023/04/29 08:48:22;;;;;;;10.57;5.47;;;;;;;14.41;100.00;102164.53;5036147;28;20033;-78
2023/04/29 08:50:47;;;;;;;12.15;5.55;;;;;;;14.33;100.00;102158.13;5033964;28;20034;-71
2023/04/29 08:53:13;;;;;;;19.70;5.63;;;;;;;14.43;100.00;102161.72;5035126;28;20476;-71
2023/04/29 08:55:46;;;;;;;8.75;5.32;;;;;;;14.53;100.00;102164.47;5035175;28;20118;-71
2023/04/29 08:58:13;;;;;;;9.55;4.97;;;;;;;14.92;100.00;102170.03;5035953;28;20079;-71
2023/04/29 09:00:41;;;;;;;11.90;5.22;;;;;;;15.21;100.00;102175.50;5035037;28;20097;-73
2023/04/29 09:03:23;;;;;;;10.05;5.18;;;;;;;15.66;84.63;102179.53;5035400;28;20037;-72
2023/04/29 09:05:52;;;;;;;11.30;4.55;;;;;;;16.34;78.40;102175.97;5035124;28;20042;-71
2023/04/29 09:08:21;;;;;;;9.10;5.18;;;;;;;17.01;71.22;102160.63;5035389;28;20084;-72
2023/04/29 09:10:46;;;;;;;17.42;5.60;;;;;;;17.90;64.73;102174.34;5035023;28;20068;-72
2023/04/29 09:13:31;;;;;;;9.15;4.57;;;;;;;18.87;57.80;102175.22;5035347;28;20420;-71
2023/04/29 09:15:57;;;;;;;11.57;5.53;;;;;;;18.90;56.70;102169.50;5035221;28;20025;-72
2023/04/29 09:18:42;;;;;;;13.52;4.40;;;;;;;19.58;54.27;102164.13;5035059;28;20524;-72
2023/04/29 09:21:15;;;;;;;13.10;4.95;;;;;;;19.66;55.28;102174.91;5033497;28;20033;-72
2023/04/29 09:23:41;;;;;;;10.45;4.40;;;;;;;20.04;53.27;102173.44;5034859;28;20060;-71
2023/04/29 09:26:06;;;;;;;9.32;4.78;;;;;;;19.65;53.33;102173.25;5035559;28;20491;-72
2023/04/29 09:28:32;;;;;;;11.35;4.80;;;;;;;19.82;52.70;102176.81;5034688;28;20526;-70
2023/04/29 09:30:58;;;;;;;9.38;4.45;;;;;;;20.02;51.35;102178.19;5034921;28;20045;-71
2023/04/29 09:33:27;;;;;;;11.10;5.15;;;;;;;20.15;51.44;102184.91;5034981;28;20170;-71
2023/04/29 09:35:53;;;;;;;9.80;4.90;;;;;;;20.13;50.58;102178.84;5034876;28;20056;-71
2023/04/29 09:38:19;;;;;;;11.38;5.43;;;;;;;20.30;51.31;102188.59;5033396;28;20068;-72
2023/04/29 09:40:45;;;;;;;13.90;5.10;;;;;;;20.26;50.70;102192.69;5034302;28;20139;-72
2023/04/29 09:43:17;;;;;;;9.93;4.53;;;;;;;20.50;50.12;102186.41;5034698;28;20060;-77
2023/04/29 09:45:46;;;;;;;14.27;5.00;;;;;;;20.92;49.82;102179.03;5034723;28;20087;-75
2023/04/29 09:48:13;;;;;;;16.70;4.60;;;;;;;21.49;48.17;102180.59;5034567;28;20036;-74
2023/04/29 09:50:40;;;;;;;14.10;5.22;;;;;;;21.34;46.77;102179.69;5034076;28;20037;-74
2023/04/29 09:53:08;;;;;;;11.73;4.80;;;;;;;21.52;47.23;102182.13;5033949;28;20156;-72
2023/04/29 09:55:53;;;;;;;11.50;4.72;;;;;;;21.75;45.64;102183.00;5034800;28;20051;-72
2023/04/29 09:58:35;;;;;;;9.75;4.57;;;;;;;21.69;48.14;102188.28;5034229;28;20076;-70
2023/04/29 10:01:02;;;;;;;8.90;4.40;;;;;;;22.05;44.58;102183.09;5034363;28;20099;-73
2023/04/29 10:03:33;;;;;;;10.95;4.25;;;;;;;22.26;44.09;102184.22;5034211;28;20052;-71
2023/04/29 10:06:00;;;;;;;9.38;4.32;;;;;;;22.24;44.57;102183.59;5034201;28;20061;-76
2023/04/29 10:08:27;;;;;;;11.57;4.93;;;;;;;22.32;44.08;102197.13;5033717;28;20065;-73
2023/04/29 10:10:56;;;;;;;9.57;4.43;;;;;;;22.09;43.09;102202.53;5033495;28;20130;-74
2023/04/29 10:13:25;;;;;;;10.95;4.70;;;;;;;22.24;44.02;102194.44;5033892;28;20026;-76
2023/04/29 10:16:10;;;;;;;8.52;4.07;;;;;;;21.89;44.12;102204.91;5033893;28;20486;-75
2023/04/29 10:18:39;;;;;;;9.57;4.93;;;;;;;21.57;43.95;102204.97;5034223;28;20464;-73
2023/04/29 10:21:08;;;;;;;9.40;4.45;;;;;;;21.75;45.05;102201.94;5033565;28;20036;-72
2023/04/29 10:23:35;;;;;;;11.00;4.00;;;;;;;22.44;43.42;102198.34;5033646;28;20167;-78
2023/04/29 10:26:02;;;;;;;6.75;3.92;;;;;;;22.57;43.41;102203.09;5033820;28;20075;-74
2023/04/29 10:28:31;;;;;;;7.55;3.70;;;;;;;22.91;42.87;102196.28;5034291;28;20104;-72
2023/04/29 10:31:00;;;;;;;7.15;3.90;;;;;;;22.77;44.67;102205.28;5033218;28;20045;-73
2023/04/29 10:33:28;;;;;;;8.98;4.13;;;;;;;22.74;41.99;102198.34;5032980;28;20029;-74
2023/04/29 10:35:54;;;;;;;8.52;4.28;;;;;;;22.55;43.04;102202.44;5033340;28;20136;-73
2023/04/29 10:38:34;;;;;;;11.27;4.30;;;;;;;22.89;42.19;102204.59;5033894;28;20122;-75
2023/04/29 10:41:03;;;;;;;8.02;4.07;;;;;;;23.22;43.51;102200.69;5033526;28;20036;-77
2023/04/29 10:43:30;;;;;;;8.80;3.85;;;;;;;22.78;42.45;102202.38;5033327;28;20033;-72
2023/04/29 10:46:28;;;;;;;9.25;4.45;;;;;;;21.76;43.09;102200.06;5033270;28;20176;-72
2023/04/29 10:49:01;;;;;;;15.07;4.10;;;;;;;21.56;44.32;102197.00;5010690;28;20472;-72
2023/04/29 10:51:31;;;;;;;11.27;3.72;;;;;;;21.52;45.68;102193.81;5033295;28;20041;-71
2023/04/29 10:54:02;;;;;;;8.13;4.07;;;;;;;20.82;48.21;102197.31;5032794;28;20105;-72
2023/04/29 10:56:48;;;;;;;10.90;4.05;;;;;;;21.24;45.43;102199.69;5033207;28;20025;-72
2023/04/29 10:59:15;;;;;;;11.52;3.60;;;;;;;21.99;44.81;102194.66;5033014;28;20029;-71
2023/04/29 11:01:47;;;;;;;11.57;4.32;;;;;;;22.56;41.93;102197.88;5033813;28;20379;-74
2023/04/29 11:04:14;;;;;;;10.15;4.10;;;;;;;22.56;43.23;102197.88;5031890;28;20490;-73
2023/04/29 11:06:41;;;;;;;9.05;3.60;;;;;;;22.96;40.85;102202.00;5031386;28;20096;-77
2023/04/29 11:09:14;;;;;;;10.02;4.13;;;;;;;22.94;40.65;102201.31;5033824;28;20030;-71
2023/04/29 11:11:44;;;;;;;13.25;4.05;;;;;;;22.63;40.99;102209.66;5032768;28;20021;-77